KMSY/MSY METAR and TAF weather

Enter ICAO airport designator
Station Type Date Time Source
KMSY METAR 2019/06/17 04:53 UTC NOAA

KMSY 170453Z 07006KT 10SM FEW022 BKN250 27/22 A2999 RMK AO2 SLP158 T02670217 $


Station Type Date Time Source
KMSY Decoded METAR 2019/06/17 04:53 UTC NOAA

NEW ORLEANS INTERNATIONAL AIRPORT, LA, United States (KMSY) 30-00N 90-15W 5M
Jun 17, 2019 - 12:53 AM EDT / 2019.06.17 0453 UTC
Wind: from the ENE (070 degrees) at 7 MPH (6 KT):0
Visibility: 10 mile(s):0
Sky conditions: mostly cloudy
Temperature: 80.1 F (26.7 C)
Dew Point: 71.1 F (21.7 C)
Relative Humidity: 74%
Pressure (altimeter): 29.99 in. Hg (1015 hPa)
ob: KMSY 170453Z 07006KT 10SM FEW022 BKN250 27/22 A2999 RMK AO2 SLP158 T02670217
cycle: 5

Station Type Date Time Source
KMSY TAF 2019/06/17 06:22 UTC NOAA

TAF KMSY 170520Z 1706/1812 VRB03KT P6SM FEW015 FEW110 BKN250
FM171500 17006KT P6SM VCTS SCT100CB
FM172100 15006KT 5SM -SHRA VCTS BKN080CB
FM180300 16005KT P6SM SCT070

Example: see airport list